sensor_id;sensor_type;location;lat;lon;timestamp;pressure;altitude;pressure_sealevel;temperature;humidity
79690;BME280;69156;55.932;-3.238;2023-04-15T00:02:13;100554.84;;;5.82;59.32
79690;BME280;69156;55.932;-3.238;2023-04-15T00:04:27;100557.56;;;5.82;59.13
79690;BME280;69156;55.932;-3.238;2023-04-15T00:06:53;100560.51;;;5.86;59.62
79690;BME280;69156;55.932;-3.238;2023-04-15T00:09:18;100566.06;;;5.62;59.65
79690;BME280;69156;55.932;-3.238;2023-04-15T00:11:44;100570.49;;;5.68;59.76
79690;BME280;69156;55.932;-3.238;2023-04-15T00:14:10;100581.93;;;5.72;60.33
79690;BME280;69156;55.932;-3.238;2023-04-15T00:16:35;100587.39;;;5.31;60.32
79690;BME280;69156;55.932;-3.238;2023-04-15T00:19:00;100586.50;;;5.53;60.63
79690;BME280;69156;55.932;-3.238;2023-04-15T00:21:27;100589.28;;;5.78;59.51
79690;BME280;69156;55.932;-3.238;2023-04-15T00:23:52;100589.60;;;5.67;58.71
79690;BME280;69156;55.932;-3.238;2023-04-15T00:26:17;100592.24;;;5.33;58.67
79690;BME280;69156;55.932;-3.238;2023-04-15T00:28:44;100598.27;;;5.73;58.81
79690;BME280;69156;55.932;-3.238;2023-04-15T00:31:09;100603.74;;;5.54;59.63
79690;BME280;69156;55.932;-3.238;2023-04-15T00:33:34;100603.75;;;5.50;59.88
79690;BME280;69156;55.932;-3.238;2023-04-15T00:36:00;100602.95;;;5.09;60.00
79690;BME280;69156;55.932;-3.238;2023-04-15T00:38:25;100606.97;;;5.16;60.14
79690;BME280;69156;55.932;-3.238;2023-04-15T00:40:51;100612.59;;;5.34;60.37
79690;BME280;69156;55.932;-3.238;2023-04-15T00:43:17;100615.13;;;5.14;60.08
79690;BME280;69156;55.932;-3.238;2023-04-15T00:45:43;100623.51;;;5.36;60.10
79690;BME280;69156;55.932;-3.238;2023-04-15T00:48:08;100625.60;;;5.33;59.70
79690;BME280;69156;55.932;-3.238;2023-04-15T00:50:33;100631.63;;;4.99;59.63
79690;BME280;69156;55.932;-3.238;2023-04-15T00:52:58;100635.48;;;5.12;59.54
79690;BME280;69156;55.932;-3.238;2023-04-15T00:55:23;100639.67;;;5.04;59.80
79690;BME280;69156;55.932;-3.238;2023-04-15T00:57:48;100640.04;;;4.91;59.71
79690;BME280;69156;55.932;-3.238;2023-04-15T01:00:13;100642.81;;;5.15;59.61
79690;BME280;69156;55.932;-3.238;2023-04-15T01:02:39;100643.58;;;5.11;59.74
79690;BME280;69156;55.932;-3.238;2023-04-15T01:05:04;100644.86;;;5.07;59.55
79690;BME280;69156;55.932;-3.238;2023-04-15T01:07:29;100645.41;;;5.12;59.84
79690;BME280;69156;55.932;-3.238;2023-04-15T01:09:55;100646.04;;;5.13;59.78
79690;BME280;69156;55.932;-3.238;2023-04-15T01:12:22;100644.81;;;5.03;59.40
79690;BME280;69156;55.932;-3.238;2023-04-15T01:14:47;100646.19;;;4.93;59.88
79690;BME280;69156;55.932;-3.238;2023-04-15T01:17:12;100647.77;;;4.93;59.85
79690;BME280;69156;55.932;-3.238;2023-04-15T01:19:37;100651.53;;;4.88;59.54
79690;BME280;69156;55.932;-3.238;2023-04-15T01:22:03;100656.92;;;4.85;60.03
79690;BME280;69156;55.932;-3.238;2023-04-15T01:24:29;100656.82;;;4.79;59.81
79690;BME280;69156;55.932;-3.238;2023-04-15T01:26:55;100660.08;;;4.78;59.59
79690;BME280;69156;55.932;-3.238;2023-04-15T01:29:20;100658.87;;;4.75;59.43
79690;BME280;69156;55.932;-3.238;2023-04-15T01:31:50;100658.87;;;4.64;59.85
79690;BME280;69156;55.932;-3.238;2023-04-15T01:34:11;100660.88;;;4.65;59.85
79690;BME280;69156;55.932;-3.238;2023-04-15T01:36:36;100664.27;;;4.57;59.84
79690;BME280;69156;55.932;-3.238;2023-04-15T01:39:03;100665.54;;;4.59;59.68
79690;BME280;69156;55.932;-3.238;2023-04-15T01:41:28;100666.89;;;4.66;59.63
79690;BME280;69156;55.932;-3.238;2023-04-15T01:43:54;100668.38;;;4.60;59.63
79690;BME280;69156;55.932;-3.238;2023-04-15T01:46:19;100670.19;;;4.56;59.68
79690;BME280;69156;55.932;-3.238;2023-04-15T01:48:44;100670.28;;;4.60;59.76
79690;BME280;69156;55.932;-3.238;2023-04-15T01:51:09;100672.36;;;4.57;60.15
79690;BME280;69156;55.932;-3.238;2023-04-15T01:53:35;100672.95;;;4.47;60.24
79690;BME280;69156;55.932;-3.238;2023-04-15T01:56:00;100676.68;;;4.47;60.17
79690;BME280;69156;55.932;-3.238;2023-04-15T01:58:25;100680.33;;;4.37;60.39
79690;BME280;69156;55.932;-3.238;2023-04-15T02:00:51;100684.28;;;4.17;60.58
79690;BME280;69156;55.932;-3.238;2023-04-15T02:03:17;100693.74;;;4.51;60.35
79690;BME280;69156;55.932;-3.238;2023-04-15T02:05:43;100701.35;;;4.48;60.39
79690;BME280;69156;55.932;-3.238;2023-04-15T02:08:08;100706.18;;;4.15;60.73
79690;BME280;69156;55.932;-3.238;2023-04-15T02:10:34;100712.88;;;4.32;60.72
79690;BME280;69156;55.932;-3.238;2023-04-15T02:12:59;100716.43;;;4.16;60.88
79690;BME280;69156;55.932;-3.238;2023-04-15T02:15:25;100724.88;;;4.13;61.36
79690;BME280;69156;55.932;-3.238;2023-04-15T02:17:50;100729.00;;;4.46;61.19
79690;BME280;69156;55.932;-3.238;2023-04-15T02:20:16;100736.80;;;4.30;61.52
79690;BME280;69156;55.932;-3.238;2023-04-15T02:22:41;100743.92;;;4.47;61.21
79690;BME280;69156;55.932;-3.238;2023-04-15T02:25:08;100748.15;;;4.10;61.35
79690;BME280;69156;55.932;-3.238;2023-04-15T02:27:32;100752.28;;;4.02;61.54
79690;BME280;69156;55.932;-3.238;2023-04-15T02:29:57;100752.95;;;4.31;61.47
79690;BME280;69156;55.932;-3.238;2023-04-15T02:32:22;100758.68;;;4.45;61.27
79690;BME280;69156;55.932;-3.238;2023-04-15T02:34:48;100764.14;;;4.25;61.55
79690;BME280;69156;55.932;-3.238;2023-04-15T02:37:13;100772.27;;;4.43;60.96
79690;BME280;69156;55.932;-3.238;2023-04-15T02:39:38;100772.38;;;4.43;60.65
79690;BME280;69156;55.932;-3.238;2023-04-15T02:42:04;100780.22;;;4.16;61.02
79690;BME280;69156;55.932;-3.238;2023-04-15T02:44:29;100784.61;;;4.16;61.05
79690;BME280;69156;55.932;-3.238;2023-04-15T02:46:54;100790.24;;;4.13;60.96
79690;BME280;69156;55.932;-3.238;2023-04-15T02:49:21;100794.47;;;3.85;60.74
79690;BME280;69156;55.932;-3.238;2023-04-15T02:51:46;100798.26;;;4.03;60.99
79690;BME280;69156;55.932;-3.238;2023-04-15T02:54:11;100798.53;;;4.05;61.07
79690;BME280;69156;55.932;-3.238;2023-04-15T02:56:37;100799.02;;;4.29;61.27
79690;BME280;69156;55.932;-3.238;2023-04-15T02:59:02;100799.51;;;4.03;61.06
79690;BME280;69156;55.932;-3.238;2023-04-15T03:01:28;100801.13;;;4.24;61.22
79690;BME280;69156;55.932;-3.238;2023-04-15T03:03:54;100803.45;;;4.09;61.42
79690;BME280;69156;55.932;-3.238;2023-04-15T03:06:19;100808.15;;;4.11;61.21
79690;BME280;69156;55.932;-3.238;2023-04-15T03:08:45;100813.11;;;3.97;61.32
79690;BME280;69156;55.932;-3.238;2023-04-15T03:11:10;100820.43;;;4.20;61.36
79690;BME280;69156;55.932;-3.238;2023-04-15T03:13:36;100829.34;;;4.26;61.23
79690;BME280;69156;55.932;-3.238;2023-04-15T03:16:01;100835.82;;;4.21;61.12
79690;BME280;69156;55.932;-3.238;2023-04-15T03:18:26;100841.32;;;4.00;60.84
79690;BME280;69156;55.932;-3.238;2023-04-15T03:20:51;100846.14;;;4.19;60.70
79690;BME280;69156;55.932;-3.238;2023-04-15T03:23:17;100849.52;;;4.13;60.95
79690;BME280;69156;55.932;-3.238;2023-04-15T03:25:44;100848.46;;;4.14;61.03
79690;BME280;69156;55.932;-3.238;2023-04-15T03:28:09;100848.96;;;4.17;60.88
79690;BME280;69156;55.932;-3.238;2023-04-15T03:30:34;100852.81;;;4.24;61.14
79690;BME280;69156;55.932;-3.238;2023-04-15T03:32:59;100854.24;;;3.89;61.13
79690;BME280;69156;55.932;-3.238;2023-04-15T03:35:25;100859.34;;;4.15;61.02
79690;BME280;69156;55.932;-3.238;2023-04-15T03:37:50;100862.93;;;4.09;60.67
79690;BME280;69156;55.932;-3.238;2023-04-15T03:40:15;100867.76;;;4.02;61.01
79690;BME280;69156;55.932;-3.238;2023-04-15T03:42:41;100873.12;;;3.96;61.17
79690;BME280;69156;55.932;-3.238;2023-04-15T03:45:07;100877.15;;;3.98;61.17
79690;BME280;69156;55.932;-3.238;2023-04-15T03:47:32;100879.03;;;3.62;61.95
79690;BME280;69156;55.932;-3.238;2023-04-15T03:49:57;100875.78;;;3.78;61.94
79690;BME280;69156;55.932;-3.238;2023-04-15T03:52:23;100872.16;;;4.00;61.55
79690;BME280;69156;55.932;-3.238;2023-04-15T03:54:48;100875.86;;;4.20;61.39
79690;BME280;69156;55.932;-3.238;2023-04-15T03:57:13;100883.67;;;4.03;60.95
79690;BME280;69156;55.932;-3.238;2023-04-15T03:59:38;100892.73;;;4.29;61.38
79690;BME280;69156;55.932;-3.238;2023-04-15T04:02:04;100901.14;;;4.29;61.32
79690;BME280;69156;55.932;-3.238;2023-04-15T04:04:29;100907.46;;;3.89;61.40
79690;BME280;69156;55.932;-3.238;2023-04-15T04:06:55;100909.65;;;4.10;61.55
79690;BME280;69156;55.932;-3.238;2023-04-15T04:09:21;100908.07;;;4.19;61.46
79690;BME280;69156;55.932;-3.238;2023-04-15T04:11:46;100906.22;;;4.17;61.69
79690;BME280;69156;55.932;-3.238;2023-04-15T04:14:12;100910.18;;;4.12;61.44
79690;BME280;69156;55.932;-3.238;2023-04-15T04:16:37;100906.59;;;4.06;61.38
79690;BME280;69156;55.932;-3.238;2023-04-15T04:19:02;100907.72;;;3.78;61.49
79690;BME280;69156;55.932;-3.238;2023-04-15T04:21:27;100907.92;;;3.56;61.38
79690;BME280;69156;55.932;-3.238;2023-04-15T04:23:52;100910.69;;;3.92;61.30
79690;BME280;69156;55.932;-3.238;2023-04-15T04:26:18;100913.16;;;3.93;61.45
79690;BME280;69156;55.932;-3.238;2023-04-15T04:28:44;100919.18;;;3.98;61.14
79690;BME280;69156;55.932;-3.238;2023-04-15T04:31:10;100918.48;;;3.90;60.73
79690;BME280;69156;55.932;-3.238;2023-04-15T04:33:35;100916.19;;;3.76;61.20
79690;BME280;69156;55.932;-3.238;2023-04-15T04:36:01;100918.09;;;3.49;61.35
79690;BME280;69156;55.932;-3.238;2023-04-15T04:38:27;100920.92;;;3.72;62.39
79690;BME280;69156;55.932;-3.238;2023-04-15T04:40:53;100923.36;;;3.73;62.38
79690;BME280;69156;55.932;-3.238;2023-04-15T04:43:18;100925.94;;;3.70;62.48
79690;BME280;69156;55.932;-3.238;2023-04-15T04:45:44;100930.17;;;3.88;62.50
79690;BME280;69156;55.932;-3.238;2023-04-15T04:48:10;100931.00;;;3.87;62.23
79690;BME280;69156;55.932;-3.238;2023-04-15T04:50:36;100931.95;;;3.85;61.75
79690;BME280;69156;55.932;-3.238;2023-04-15T04:53:00;100930.93;;;3.88;61.50
79690;BME280;69156;55.932;-3.238;2023-04-15T04:55:27;100934.63;;;3.90;61.48
79690;BME280;69156;55.932;-3.238;2023-04-15T04:57:52;100938.90;;;3.91;61.72
79690;BME280;69156;55.932;-3.238;2023-04-15T05:00:18;100946.05;;;3.87;61.72
79690;BME280;69156;55.932;-3.238;2023-04-15T05:02:43;100955.39;;;3.83;61.63
79690;BME280;69156;55.932;-3.238;2023-04-15T05:05:09;100961.40;;;3.38;60.69
79690;BME280;69156;55.932;-3.238;2023-04-15T05:07:35;100968.14;;;3.50;60.89
79690;BME280;69156;55.932;-3.238;2023-04-15T05:10:00;100965.90;;;3.50;61.41
79690;BME280;69156;55.932;-3.238;2023-04-15T05:12:25;100968.32;;;3.53;61.56
79690;BME280;69156;55.932;-3.238;2023-04-15T05:14:50;100971.65;;;3.62;61.50
79690;BME280;69156;55.932;-3.238;2023-04-15T05:17:16;100975.12;;;3.57;61.56
79690;BME280;69156;55.932;-3.238;2023-04-15T05:19:41;100984.55;;;3.63;62.00
79690;BME280;69156;55.932;-3.238;2023-04-15T05:22:07;100996.77;;;3.65;61.58
79690;BME280;69156;55.932;-3.238;2023-04-15T05:24:33;101002.26;;;3.41;61.65
79690;BME280;69156;55.932;-3.238;2023-04-15T05:26:58;101007.71;;;3.47;61.05
79690;BME280;69156;55.932;-3.238;2023-04-15T05:29:24;101009.57;;;3.34;61.10
79690;BME280;69156;55.932;-3.238;2023-04-15T05:31:49;101016.64;;;3.34;61.23
79690;BME280;69156;55.932;-3.238;2023-04-15T05:34:16;101023.20;;;3.32;61.42
79690;BME280;69156;55.932;-3.238;2023-04-15T05:36:41;101028.86;;;3.36;61.16
79690;BME280;69156;55.932;-3.238;2023-04-15T05:39:07;101037.22;;;3.45;61.78
79690;BME280;69156;55.932;-3.238;2023-04-15T05:41:32;101043.74;;;3.53;61.59
79690;BME280;69156;55.932;-3.238;2023-04-15T05:43:58;101051.13;;;3.53;61.55
79690;BME280;69156;55.932;-3.238;2023-04-15T05:46:23;101056.98;;;3.34;61.74
79690;BME280;69156;55.932;-3.238;2023-04-15T05:48:48;101059.25;;;3.55;61.56
79690;BME280;69156;55.932;-3.238;2023-04-15T05:51:14;101061.99;;;3.55;61.72
79690;BME280;69156;55.932;-3.238;2023-04-15T05:53:40;101064.60;;;3.56;62.30
79690;BME280;69156;55.932;-3.238;2023-04-15T05:56:05;101071.01;;;3.55;62.17
79690;BME280;69156;55.932;-3.238;2023-04-15T05:58:30;101075.69;;;3.47;61.97
79690;BME280;69156;55.932;-3.238;2023-04-15T06:00:56;101080.97;;;3.40;62.06
79690;BME280;69156;55.932;-3.238;2023-04-15T06:03:21;101085.49;;;3.42;62.00
79690;BME280;69156;55.932;-3.238;2023-04-15T06:05:47;101089.12;;;3.49;61.80
79690;BME280;69156;55.932;-3.238;2023-04-15T06:08:13;101097.78;;;3.43;62.48
79690;BME280;69156;55.932;-3.238;2023-04-15T06:10:38;101105.40;;;3.47;62.90
79690;BME280;69156;55.932;-3.238;2023-04-15T06:13:04;101112.14;;;3.45;63.35
79690;BME280;69156;55.932;-3.238;2023-04-15T06:15:30;101116.14;;;3.49;63.41
79690;BME280;69156;55.932;-3.238;2023-04-15T06:17:56;101120.78;;;3.55;63.89
79690;BME280;69156;55.932;-3.238;2023-04-15T06:20:21;101125.31;;;3.65;63.50
79690;BME280;69156;55.932;-3.238;2023-04-15T06:22:47;101129.96;;;3.98;62.98
79690;BME280;69156;55.932;-3.238;2023-04-15T06:25:13;101132.70;;;3.83;63.18
79690;BME280;69156;55.932;-3.238;2023-04-15T06:27:38;101132.04;;;3.86;63.27
79690;BME280;69156;55.932;-3.238;2023-04-15T06:30:03;101132.34;;;3.87;63.40
79690;BME280;69156;55.932;-3.238;2023-04-15T06:32:29;101132.89;;;3.95;63.42
79690;BME280;69156;55.932;-3.238;2023-04-15T06:34:54;101135.20;;;4.05;63.08
79690;BME280;69156;55.932;-3.238;2023-04-15T06:37:19;101135.28;;;4.14;62.70
79690;BME280;69156;55.932;-3.238;2023-04-15T06:39:45;101135.43;;;4.13;63.28
79690;BME280;69156;55.932;-3.238;2023-04-15T06:42:11;101135.54;;;4.27;62.85
79690;BME280;69156;55.932;-3.238;2023-04-15T06:44:36;101139.02;;;4.16;63.32
79690;BME280;69156;55.932;-3.238;2023-04-15T06:47:01;101140.74;;;4.44;62.57
79690;BME280;69156;55.932;-3.238;2023-04-15T06:49:27;101145.83;;;4.38;62.21
79690;BME280;69156;55.932;-3.238;2023-04-15T06:51:53;101149.32;;;4.60;62.91
79690;BME280;69156;55.932;-3.238;2023-04-15T06:54:19;101155.42;;;4.46;62.13
79690;BME280;69156;55.932;-3.238;2023-04-15T06:56:44;101155.52;;;4.53;62.66
79690;BME280;69156;55.932;-3.238;2023-04-15T06:59:09;101157.13;;;4.70;62.05
79690;BME280;69156;55.932;-3.238;2023-04-15T07:01:35;101161.21;;;4.76;62.31
79690;BME280;69156;55.932;-3.238;2023-04-15T07:04:00;101163.37;;;4.75;62.39
79690;BME280;69156;55.932;-3.238;2023-04-15T07:06:25;101166.08;;;4.91;61.20
79690;BME280;69156;55.932;-3.238;2023-04-15T07:08:50;101170.04;;;5.07;61.22
79690;BME280;69156;55.932;-3.238;2023-04-15T07:11:16;101169.62;;;5.19;60.78
79690;BME280;69156;55.932;-3.238;2023-04-15T07:13:41;101168.60;;;5.23;61.91
79690;BME280;69156;55.932;-3.238;2023-04-15T07:16:06;101168.64;;;5.45;61.11
79690;BME280;69156;55.932;-3.238;2023-04-15T07:18:32;101168.23;;;5.40;61.55
79690;BME280;69156;55.932;-3.238;2023-04-15T07:20:57;101170.46;;;5.47;61.30
79690;BME280;69156;55.932;-3.238;2023-04-15T07:23:23;101169.03;;;5.59;61.04
79690;BME280;69156;55.932;-3.238;2023-04-15T07:25:48;101167.12;;;5.52;61.16
79690;BME280;69156;55.932;-3.238;2023-04-15T07:28:13;101170.69;;;5.44;61.40
79690;BME280;69156;55.932;-3.238;2023-04-15T07:30:39;101172.64;;;5.34;61.18
79690;BME280;69156;55.932;-3.238;2023-04-15T07:33:05;101179.02;;;5.92;61.62
79690;BME280;69156;55.932;-3.238;2023-04-15T07:35:30;101182.92;;;5.97;60.95
79690;BME280;69156;55.932;-3.238;2023-04-15T07:37:55;101182.38;;;6.11;61.39
79690;BME280;69156;55.932;-3.238;2023-04-15T07:40:21;101183.09;;;5.96;60.82
79690;BME280;69156;55.932;-3.238;2023-04-15T07:42:46;101187.28;;;5.88;60.65
79690;BME280;69156;55.932;-3.238;2023-04-15T07:45:12;101191.22;;;6.28;60.20
79690;BME280;69156;55.932;-3.238;2023-04-15T07:47:37;101197.92;;;6.56;59.45
79690;BME280;69156;55.932;-3.238;2023-04-15T07:50:03;101203.91;;;6.53;59.75
79690;BME280;69156;55.932;-3.238;2023-04-15T07:52:28;101214.55;;;6.68;59.81
79690;BME280;69156;55.932;-3.238;2023-04-15T07:54:53;101227.77;;;6.85;59.28
79690;BME280;69156;55.932;-3.238;2023-04-15T07:57:19;101234.07;;;6.90;59.31
79690;BME280;69156;55.932;-3.238;2023-04-15T07:59:45;101237.81;;;6.72;58.81
79690;BME280;69156;55.932;-3.238;2023-04-15T08:02:10;101245.41;;;6.43;59.78
79690;BME280;69156;55.932;-3.238;2023-04-15T08:04:36;101248.10;;;6.58;59.74
79690;BME280;69156;55.932;-3.238;2023-04-15T08:07:00;101251.46;;;6.68;59.84
79690;BME280;69156;55.932;-3.238;2023-04-15T08:09:26;101254.11;;;6.87;60.24
79690;BME280;69156;55.932;-3.238;2023-04-15T08:11:52;101253.38;;;7.18;59.40
79690;BME280;69156;55.932;-3.238;2023-04-15T08:14:17;101256.17;;;7.10;59.49
79690;BME280;69156;55.932;-3.238;2023-04-15T08:16:43;101260.07;;;7.03;59.44
79690;BME280;69156;55.932;-3.238;2023-04-15T08:19:08;101262.77;;;7.10;59.15
79690;BME280;69156;55.932;-3.238;2023-04-15T08:21:35;101264.54;;;6.96;58.77
79690;BME280;69156;55.932;-3.238;2023-04-15T08:24:00;101272.08;;;7.00;59.38
79690;BME280;69156;55.932;-3.238;2023-04-15T08:26:25;101273.11;;;7.05;59.13
79690;BME280;69156;55.932;-3.238;2023-04-15T08:28:50;101275.36;;;7.17;58.91
79690;BME280;69156;55.932;-3.238;2023-04-15T08:31:17;101276.73;;;7.30;58.89
79690;BME280;69156;55.932;-3.238;2023-04-15T08:33:41;101278.92;;;7.42;58.67
79690;BME280;69156;55.932;-3.238;2023-04-15T08:36:07;101280.72;;;7.57;58.13
79690;BME280;69156;55.932;-3.238;2023-04-15T08:38:33;101280.71;;;7.52;59.02
79690;BME280;69156;55.932;-3.238;2023-04-15T08:41:03;101280.69;;;7.69;58.56
79690;BME280;69156;55.932;-3.238;2023-04-15T08:43:27;101278.70;;;7.70;58.09
79690;BME280;69156;55.932;-3.238;2023-04-15T08:45:50;101276.32;;;7.76;57.42
79690;BME280;69156;55.932;-3.238;2023-04-15T08:48:16;101278.99;;;7.87;56.81
79690;BME280;69156;55.932;-3.238;2023-04-15T08:50:40;101276.67;;;7.75;56.17
79690;BME280;69156;55.932;-3.238;2023-04-15T08:53:05;101274.92;;;7.81;55.90
79690;BME280;69156;55.932;-3.238;2023-04-15T08:55:33;101276.37;;;8.09;55.84
79690;BME280;69156;55.932;-3.238;2023-04-15T08:57:57;101276.33;;;8.16;55.45
79690;BME280;69156;55.932;-3.238;2023-04-15T09:00:23;101278.50;;;8.43;54.67
79690;BME280;69156;55.932;-3.238;2023-04-15T09:02:48;101282.97;;;8.63;54.08
79690;BME280;69156;55.932;-3.238;2023-04-15T09:05:13;101289.58;;;8.91;53.17
79690;BME280;69156;55.932;-3.238;2023-04-15T09:07:39;101292.80;;;9.17;52.93
79690;BME280;69156;55.932;-3.238;2023-04-15T09:10:04;101293.31;;;9.44;50.37
79690;BME280;69156;55.932;-3.238;2023-04-15T09:12:30;101292.62;;;9.64;50.14
79690;BME280;69156;55.932;-3.238;2023-04-15T09:14:56;101294.63;;;9.82;51.20
79690;BME280;69156;55.932;-3.238;2023-04-15T09:17:21;101291.97;;;9.94;48.98
79690;BME280;69156;55.932;-3.238;2023-04-15T09:19:47;101294.87;;;9.91;49.46
79690;BME280;69156;55.932;-3.238;2023-04-15T09:22:12;101286.05;;;10.15;48.62
79690;BME280;69156;55.932;-3.238;2023-04-15T09:24:38;101282.22;;;10.08;48.09
79690;BME280;69156;55.932;-3.238;2023-04-15T09:27:02;101283.69;;;10.17;47.62
79690;BME280;69156;55.932;-3.238;2023-04-15T09:29:28;101286.45;;;10.71;46.92
79690;BME280;69156;55.932;-3.238;2023-04-15T09:31:52;101285.72;;;10.46;46.78
79690;BME280;69156;55.932;-3.238;2023-04-15T09:34:18;101285.68;;;10.44;46.99
79690;BME280;69156;55.932;-3.238;2023-04-15T09:36:54;101291.09;;;10.46;47.57
79690;BME280;69156;55.932;-3.238;2023-04-15T09:39:09;101291.87;;;10.69;46.54
79690;BME280;69156;55.932;-3.238;2023-04-15T09:41:35;101294.03;;;10.76;47.04
79690;BME280;69156;55.932;-3.238;2023-04-15T09:44:01;101294.21;;;10.89;46.46
79690;BME280;69156;55.932;-3.238;2023-04-15T09:46:43;101295.33;;;10.77;46.33
79690;BME280;69156;55.932;-3.238;2023-04-15T09:49:07;101297.44;;;10.82;46.75
79690;BME280;69156;55.932;-3.238;2023-04-15T09:51:17;101300.39;;;10.95;45.97
79690;BME280;69156;55.932;-3.238;2023-04-15T09:53:42;101302.08;;;11.11;46.07
79690;BME280;69156;55.932;-3.238;2023-04-15T09:56:08;101300.84;;;10.92;45.84
79690;BME280;69156;55.932;-3.238;2023-04-15T09:58:34;101304.92;;;10.84;45.74
79690;BME280;69156;55.932;-3.238;2023-04-15T10:00:59;101305.13;;;11.20;45.29
79690;BME280;69156;55.932;-3.238;2023-04-15T10:03:25;101308.08;;;11.27;44.12
79690;BME280;69156;55.932;-3.238;2023-04-15T10:05:51;101308.90;;;11.04;44.76
79690;BME280;69156;55.932;-3.238;2023-04-15T10:08:17;101315.97;;;10.87;47.95
79690;BME280;69156;55.932;-3.238;2023-04-15T10:10:41;101321.72;;;10.94;48.56
79690;BME280;69156;55.932;-3.238;2023-04-15T10:13:07;101315.20;;;10.93;48.74
79690;BME280;69156;55.932;-3.238;2023-04-15T10:15:33;101316.99;;;10.96;48.75
79690;BME280;69156;55.932;-3.238;2023-04-15T10:17:59;101317.35;;;11.12;49.04
79690;BME280;69156;55.932;-3.238;2023-04-15T10:20:23;101321.52;;;11.20;47.38
79690;BME280;69156;55.932;-3.238;2023-04-15T10:22:48;101323.27;;;11.44;46.88
79690;BME280;69156;55.932;-3.238;2023-04-15T10:25:14;101325.57;;;11.52;46.41
79690;BME280;69156;55.932;-3.238;2023-04-15T10:27:39;101331.10;;;11.66;46.00
79690;BME280;69156;55.932;-3.238;2023-04-15T10:30:06;101333.92;;;11.39;46.71
79690;BME280;69156;55.932;-3.238;2023-04-15T10:32:31;101335.21;;;11.32;47.78
79690;BME280;69156;55.932;-3.238;2023-04-15T10:34:56;101332.31;;;11.21;46.93
79690;BME280;69156;55.932;-3.238;2023-04-15T10:37:24;101339.74;;;11.11;46.93
79690;BME280;69156;55.932;-3.238;2023-04-15T10:39:47;101339.90;;;11.15;47.60
79690;BME280;69156;55.932;-3.238;2023-04-15T10:42:14;101343.23;;;10.96;47.08
79690;BME280;69156;55.932;-3.238;2023-04-15T10:44:38;101342.53;;;10.91;47.44
79690;BME280;69156;55.932;-3.238;2023-04-15T10:47:09;101339.20;;;10.81;46.39
79690;BME280;69156;55.932;-3.238;2023-04-15T10:49:29;101334.19;;;10.82;47.44
79690;BME280;69156;55.932;-3.238;2023-04-15T10:51:57;101332.88;;;11.14;47.35
79690;BME280;69156;55.932;-3.238;2023-04-15T10:54:31;101332.84;;;11.32;47.09
79690;BME280;69156;55.932;-3.238;2023-04-15T10:56:50;101334.27;;;11.36;46.32
79690;BME280;69156;55.932;-3.238;2023-04-15T10:59:11;101334.29;;;11.28;46.61
79690;BME280;69156;55.932;-3.238;2023-04-15T11:01:54;101331.32;;;11.17;47.23
79690;BME280;69156;55.932;-3.238;2023-04-15T11:04:03;101332.55;;;11.34;47.40
79690;BME280;69156;55.932;-3.238;2023-04-15T11:06:43;101333.66;;;11.45;46.55
79690;BME280;69156;55.932;-3.238;2023-04-15T11:08:55;101338.57;;;11.31;47.76
79690;BME280;69156;55.932;-3.238;2023-04-15T11:11:19;101335.39;;;11.43;46.67
79690;BME280;69156;55.932;-3.238;2023-04-15T11:13:48;101338.26;;;11.72;45.53
79690;BME280;69156;55.932;-3.238;2023-04-15T11:16:10;101334.88;;;11.03;46.55
79690;BME280;69156;55.932;-3.238;2023-04-15T11:18:35;101340.66;;;10.86;47.14
79690;BME280;69156;55.932;-3.238;2023-04-15T11:21:04;101345.74;;;10.79;48.29
79690;BME280;69156;55.932;-3.238;2023-04-15T11:23:29;101346.50;;;10.79;48.48
79690;BME280;69156;55.932;-3.238;2023-04-15T11:25:54;101346.26;;;10.99;48.17
79690;BME280;69156;55.932;-3.238;2023-04-15T11:28:18;101342.17;;;11.11;47.74
79690;BME280;69156;55.932;-3.238;2023-04-15T11:30:43;101348.29;;;11.12;48.95
79690;BME280;69156;55.932;-3.238;2023-04-15T11:33:11;101352.65;;;10.67;48.43
79690;BME280;69156;55.932;-3.238;2023-04-15T11:35:34;101354.76;;;11.05;48.52
79690;BME280;69156;55.932;-3.238;2023-04-15T11:38:02;101354.46;;;11.21;49.43
79690;BME280;69156;55.932;-3.238;2023-04-15T11:40:27;101355.77;;;10.89;49.10
79690;BME280;69156;55.932;-3.238;2023-04-15T11:43:03;101359.86;;;11.04;48.36
79690;BME280;69156;55.932;-3.238;2023-04-15T11:45:15;101356.38;;;11.00;47.76
79690;BME280;69156;55.932;-3.238;2023-04-15T11:47:41;101352.39;;;11.14;48.34
79690;BME280;69156;55.932;-3.238;2023-04-15T11:50:16;101352.13;;;11.14;48.98
79690;BME280;69156;55.932;-3.238;2023-04-15T11:52:31;101360.23;;;10.99;49.11
79690;BME280;69156;55.932;-3.238;2023-04-15T11:55:02;101363.43;;;11.00;48.42
79690;BME280;69156;55.932;-3.238;2023-04-15T11:57:22;101360.55;;;11.13;48.28
79690;BME280;69156;55.932;-3.238;2023-04-15T11:59:47;101362.64;;;11.19;47.66
79690;BME280;69156;55.932;-3.238;2023-04-15T12:02:13;101366.75;;;10.98;47.74
79690;BME280;69156;55.932;-3.238;2023-04-15T12:04:38;101368.39;;;10.87;48.11
79690;BME280;69156;55.932;-3.238;2023-04-15T12:07:04;101368.32;;;10.84;47.95
79690;BME280;69156;55.932;-3.238;2023-04-15T12:09:29;101367.63;;;11.06;48.42
79690;BME280;69156;55.932;-3.238;2023-04-15T12:11:56;101363.67;;;11.03;48.52
79690;BME280;69156;55.932;-3.238;2023-04-15T12:14:24;101367.04;;;10.92;49.48
79690;BME280;69156;55.932;-3.238;2023-04-15T12:16:48;101365.61;;;11.20;49.42
79690;BME280;69156;55.932;-3.238;2023-04-15T12:19:13;101370.81;;;11.05;48.68
79690;BME280;69156;55.932;-3.238;2023-04-15T12:21:39;101368.17;;;10.91;48.61
79690;BME280;69156;55.932;-3.238;2023-04-15T12:24:05;101373.06;;;10.96;48.51
79690;BME280;69156;55.932;-3.238;2023-04-15T12:26:32;101374.30;;;11.07;49.02
79690;BME280;69156;55.932;-3.238;2023-04-15T12:28:54;101374.19;;;11.37;49.47
79690;BME280;69156;55.932;-3.238;2023-04-15T12:31:19;101377.01;;;11.23;49.44
79690;BME280;69156;55.932;-3.238;2023-04-15T12:33:47;101371.18;;;11.32;48.97
79690;BME280;69156;55.932;-3.238;2023-04-15T12:36:10;101372.39;;;11.34;48.62
79690;BME280;69156;55.932;-3.238;2023-04-15T12:38:35;101376.05;;;10.86;49.71